createdAt,value
2022-11-30T00:00:56.444Z,24.88
2022-11-30T00:03:23.966Z,26.75
2022-11-30T00:05:50.725Z,25.55
2022-11-30T00:08:17.725Z,25.95
2022-11-30T00:10:44.768Z,26.30
2022-11-30T00:13:11.343Z,26.17
2022-11-30T00:15:38.035Z,25.88
2022-11-30T00:18:05.090Z,27.48
2022-11-30T00:20:31.899Z,26.77
2022-11-30T00:22:58.478Z,25.05
2022-11-30T00:25:25.569Z,24.52
2022-11-30T00:27:52.467Z,24.98
2022-11-30T00:30:19.020Z,24.30
2022-11-30T00:32:45.514Z,25.48
2022-11-30T00:35:12.254Z,24.25
2022-11-30T00:37:38.805Z,22.73
2022-11-30T00:40:06.331Z,25.02
2022-11-30T00:42:32.908Z,26.05
2022-11-30T00:44:59.432Z,25.17
2022-11-30T00:47:25.934Z,26.20
2022-11-30T00:49:52.462Z,27.67
2022-11-30T00:52:19.006Z,26.38
2022-11-30T00:54:46.083Z,29.70
2022-11-30T00:57:13.022Z,27.45
2022-11-30T00:59:39.561Z,28.30
2022-11-30T01:02:06.155Z,26.73
2022-11-30T01:04:32.776Z,28.52
2022-11-30T01:06:59.390Z,26.63
2022-11-30T01:09:26.004Z,26.67
2022-11-30T01:11:52.621Z,28.25
2022-11-30T01:14:19.204Z,27.38
2022-11-30T01:16:45.748Z,29.35
2022-11-30T01:19:12.278Z,29.77
2022-11-30T01:21:38.904Z,30.50
2022-11-30T01:24:05.952Z,30.45
2022-11-30T01:26:32.548Z,28.95
2022-11-30T01:28:59.112Z,27.88
2022-11-30T01:31:25.766Z,31.15
2022-11-30T01:33:55.093Z,30.98
2022-11-30T01:36:26.417Z,32.08
2022-11-30T01:38:55.520Z,30.75
2022-11-30T01:41:31.144Z,28.85
2022-11-30T01:44:20.126Z,30.40
2022-11-30T01:47:04.887Z,31.60
2022-11-30T01:49:36.032Z,32.65
2022-11-30T01:52:10.997Z,31.58
2022-11-30T01:55:07.280Z,34.15
2022-11-30T01:57:40.914Z,32.42
2022-11-30T02:03:11.228Z,28.67
2022-11-30T02:05:40.161Z,30.63
2022-11-30T02:08:08.787Z,32.00
2022-11-30T02:10:38.780Z,30.45
2022-11-30T02:13:23.805Z,30.92
2022-11-30T02:16:16.742Z,30.23
2022-11-30T02:19:12.824Z,32.05
2022-11-30T02:21:53.729Z,33.88
2022-11-30T02:24:44.743Z,35.90
2022-11-30T02:27:31.634Z,33.05
2022-11-30T02:30:11.704Z,31.30
2022-11-30T02:32:48.615Z,32.60
2022-11-30T02:35:20.445Z,34.53
2022-11-30T02:37:48.785Z,31.80
2022-11-30T02:40:20.437Z,32.75
2022-11-30T02:42:50.442Z,31.65
2022-11-30T02:45:20.525Z,30.02
2022-11-30T02:47:55.589Z,30.38
2022-11-30T02:50:28.353Z,30.00
2022-11-30T02:52:55.737Z,29.20
2022-11-30T02:55:22.716Z,30.52
2022-11-30T02:57:49.358Z,29.45
2022-11-30T03:00:16.744Z,30.17
2022-11-30T03:02:43.339Z,32.10
2022-11-30T03:05:10.692Z,31.52
2022-11-30T03:07:37.316Z,30.60
2022-11-30T03:10:05.064Z,29.05
2022-11-30T03:12:31.627Z,30.10
2022-11-30T03:14:58.132Z,30.05
2022-11-30T03:17:24.758Z,29.67
2022-11-30T03:19:51.803Z,28.33
2022-11-30T03:22:18.328Z,29.63
2022-11-30T03:24:45.041Z,30.10
2022-11-30T03:27:12.413Z,28.15
2022-11-30T03:29:39.361Z,29.98
2022-11-30T03:32:06.219Z,28.50
2022-11-30T03:34:32.756Z,29.38
2022-11-30T03:36:59.445Z,29.27
2022-11-30T03:39:26.154Z,28.67
2022-11-30T03:41:52.765Z,28.95
2022-11-30T03:44:19.611Z,29.45
2022-11-30T03:46:46.161Z,29.98
2022-11-30T03:49:12.894Z,29.85
2022-11-30T03:51:39.520Z,29.48
2022-11-30T03:54:06.133Z,27.67
2022-11-30T03:56:32.715Z,28.55
2022-11-30T03:58:59.225Z,29.25
2022-11-30T04:01:26.640Z,28.90
2022-11-30T04:03:53.502Z,29.55
2022-11-30T04:06:21.749Z,27.85
2022-11-30T04:08:48.477Z,29.25
2022-11-30T04:11:15.491Z,28.83
2022-11-30T04:13:42.717Z,28.30
2022-11-30T04:16:09.744Z,29.33
2022-11-30T04:18:37.397Z,27.98
2022-11-30T04:21:05.179Z,29.65
2022-11-30T04:23:34.601Z,28.30
2022-11-30T04:26:04.291Z,28.63
2022-11-30T04:28:31.294Z,29.33
2022-11-30T04:31:00.405Z,28.35
2022-11-30T04:33:28.358Z,28.10
2022-11-30T04:35:56.912Z,28.27
2022-11-30T04:38:24.654Z,28.67
2022-11-30T04:40:51.666Z,27.80
2022-11-30T04:43:19.144Z,28.40
2022-11-30T04:45:46.130Z,27.17
2022-11-30T04:48:13.336Z,27.00
2022-11-30T04:50:39.983Z,26.45
2022-11-30T04:53:07.691Z,26.45
2022-11-30T04:55:34.436Z,27.42
2022-11-30T04:58:01.028Z,27.98
2022-11-30T05:00:27.741Z,27.00
2022-11-30T05:02:56.532Z,27.58
2022-11-30T05:05:23.746Z,26.42
2022-11-30T05:07:58.054Z,27.42
2022-11-30T05:10:25.874Z,28.58
2022-11-30T05:12:52.492Z,28.92
2022-11-30T05:15:19.579Z,28.25
2022-11-30T05:17:46.548Z,28.27
2022-11-30T05:20:14.083Z,30.67
2022-11-30T05:22:40.758Z,30.05
2022-11-30T05:25:08.009Z,32.08
2022-11-30T05:27:35.348Z,31.42
2022-11-30T05:30:02.230Z,31.95
2022-11-30T05:32:28.835Z,31.52
2022-11-30T05:34:55.767Z,30.50
2022-11-30T05:37:22.881Z,30.40
2022-11-30T05:39:49.747Z,31.73
2022-11-30T05:42:16.439Z,29.67
2022-11-30T05:44:43.481Z,30.77
2022-11-30T05:47:10.496Z,31.17
2022-11-30T05:49:37.099Z,32.70
2022-11-30T05:52:03.803Z,30.42
2022-11-30T05:54:30.352Z,29.67
2022-11-30T05:56:57.022Z,29.83
2022-11-30T05:59:23.751Z,29.95
2022-11-30T06:01:53.714Z,30.25
2022-11-30T06:04:21.719Z,28.67
2022-11-30T06:06:49.520Z,31.30
2022-11-30T06:09:16.240Z,31.45
2022-11-30T06:11:42.910Z,29.98
2022-11-30T06:14:09.571Z,29.75
2022-11-30T06:16:39.126Z,30.15
2022-11-30T06:19:06.193Z,30.33
2022-11-30T06:21:32.810Z,29.73
2022-11-30T06:23:59.316Z,31.13
2022-11-30T06:26:26.180Z,30.42
2022-11-30T06:28:52.695Z,28.95
2022-11-30T06:31:19.277Z,27.80
2022-11-30T06:33:45.803Z,30.02
2022-11-30T06:36:12.536Z,29.25
2022-11-30T06:38:39.521Z,28.38
2022-11-30T06:41:08.736Z,28.98
2022-11-30T06:43:36.973Z,29.15
2022-11-30T06:46:05.228Z,27.75
2022-11-30T06:48:32.512Z,27.63
2022-11-30T06:51:00.464Z,27.73
2022-11-30T06:53:27.968Z,27.45
2022-11-30T06:55:55.073Z,26.48
2022-11-30T06:58:22.087Z,27.95
2022-11-30T07:00:49.481Z,27.15
2022-11-30T07:03:19.386Z,25.88
2022-11-30T07:05:52.528Z,25.25
2022-11-30T07:08:19.877Z,24.20
2022-11-30T07:10:50.917Z,24.27
2022-11-30T07:13:19.726Z,23.10
2022-11-30T07:15:48.917Z,24.83
2022-11-30T07:18:16.567Z,23.85
2022-11-30T07:20:43.638Z,23.85
2022-11-30T07:23:28.796Z,23.38
2022-11-30T07:26:10.571Z,25.17
2022-11-30T07:28:43.079Z,22.60
2022-11-30T07:31:16.672Z,22.48
2022-11-30T07:33:43.817Z,22.85
2022-11-30T07:36:11.193Z,21.98
2022-11-30T07:38:38.499Z,21.60
2022-11-30T07:41:05.474Z,18.83
2022-11-30T07:43:33.049Z,19.52
2022-11-30T07:46:00.444Z,19.90
2022-11-30T07:48:27.755Z,17.58
2022-11-30T07:50:54.634Z,17.25
2022-11-30T07:53:21.214Z,17.45
2022-11-30T07:55:50.544Z,16.73
2022-11-30T07:58:19.334Z,17.58
2022-11-30T08:00:45.850Z,17.17
2022-11-30T08:03:12.357Z,15.35
2022-11-30T08:05:38.876Z,15.68
2022-11-30T08:08:05.465Z,14.40
2022-11-30T08:10:32.124Z,14.15
2022-11-30T08:12:59.259Z,13.95
2022-11-30T08:15:32.135Z,14.25
2022-11-30T08:18:05.236Z,13.85
2022-11-30T08:20:31.872Z,14.23
2022-11-30T08:22:58.812Z,13.35
2022-11-30T08:25:25.393Z,13.82
2022-11-30T08:27:51.919Z,12.00
2022-11-30T08:30:18.628Z,11.70
2022-11-30T08:32:45.148Z,11.73
2022-11-30T08:35:11.816Z,9.48
2022-11-30T08:37:38.846Z,10.18
2022-11-30T08:40:06.285Z,9.63
2022-11-30T08:42:32.838Z,10.60
2022-11-30T08:44:59.561Z,9.82
2022-11-30T08:47:26.665Z,9.23
2022-11-30T08:49:53.293Z,9.85
2022-11-30T08:52:19.999Z,10.93
2022-11-30T08:54:48.078Z,10.45
2022-11-30T08:57:17.563Z,10.40
2022-11-30T08:59:44.487Z,11.20
2022-11-30T09:02:13.439Z,10.95
2022-11-30T09:04:40.002Z,11.63
2022-11-30T09:07:06.706Z,13.57
2022-11-30T09:09:33.354Z,13.80
2022-11-30T09:11:59.993Z,13.52
2022-11-30T09:14:26.811Z,13.75
2022-11-30T09:16:54.113Z,13.32
2022-11-30T09:19:21.521Z,12.77
2022-11-30T09:21:51.876Z,12.75
2022-11-30T09:24:19.690Z,12.52
2022-11-30T09:26:46.305Z,12.88
2022-11-30T09:29:12.950Z,13.25
2022-11-30T09:31:39.599Z,13.07
2022-11-30T09:34:06.162Z,13.80
2022-11-30T09:36:34.049Z,12.68
2022-11-30T09:39:01.114Z,13.13
2022-11-30T09:41:55.082Z,16.08
2022-11-30T09:44:27.913Z,27.25
2022-11-30T09:47:17.688Z,13.82
2022-11-30T09:49:46.402Z,14.00
2022-11-30T09:52:37.324Z,14.80
2022-11-30T09:55:08.800Z,14.75
2022-11-30T09:57:46.977Z,13.82
2022-11-30T10:00:21.717Z,13.63
2022-11-30T10:02:53.832Z,14.25
2022-11-30T10:05:28.796Z,13.75
2022-11-30T10:08:07.450Z,13.52
2022-11-30T10:10:41.866Z,14.32
2022-11-30T10:13:52.248Z,13.10
2022-11-30T10:16:39.327Z,15.38
2022-11-30T10:19:08.842Z,15.98
2022-11-30T10:21:41.344Z,12.60
2022-11-30T10:24:40.481Z,12.10
2022-11-30T10:27:40.751Z,13.10
2022-11-30T10:30:17.003Z,13.80
2022-11-30T10:32:47.219Z,14.23
2022-11-30T10:35:37.116Z,14.00
2022-11-30T10:38:13.585Z,12.43
2022-11-30T10:40:52.792Z,13.30
2022-11-30T10:43:34.053Z,12.82
2022-11-30T10:46:00.704Z,12.32
2022-11-30T10:48:51.655Z,12.70
2022-11-30T10:51:18.281Z,12.80
2022-11-30T10:53:47.274Z,13.00
2022-11-30T10:56:15.220Z,12.35
2022-11-30T10:59:04.737Z,11.52
2022-11-30T11:01:41.124Z,11.93
2022-11-30T11:04:17.200Z,10.77
2022-11-30T11:06:43.894Z,11.98
2022-11-30T11:09:29.772Z,12.55
2022-11-30T11:12:02.700Z,17.17
2022-11-30T11:14:34.871Z,12.02
2022-11-30T11:17:17.678Z,12.48
2022-11-30T11:19:46.280Z,12.82
2022-11-30T11:22:13.018Z,12.55
2022-11-30T11:24:39.708Z,12.00
2022-11-30T11:27:06.455Z,12.48
2022-11-30T11:29:34.956Z,13.27
2022-11-30T11:32:31.605Z,13.23
2022-11-30T11:34:58.372Z,13.00
2022-11-30T11:37:33.996Z,13.30
2022-11-30T11:40:00.761Z,13.13
2022-11-30T11:42:31.375Z,12.20
2022-11-30T11:45:00.042Z,12.70
2022-11-30T11:47:41.064Z,13.27
2022-11-30T11:50:57.766Z,13.27
2022-11-30T11:53:24.950Z,13.13
2022-11-30T11:55:56.291Z,14.00
2022-11-30T11:58:39.647Z,14.18
2022-11-30T12:01:38.785Z,15.15
2022-11-30T12:04:17.985Z,15.48
2022-11-30T12:06:46.592Z,14.73
2022-11-30T12:09:18.187Z,15.10
2022-11-30T12:11:47.609Z,15.98
2022-11-30T12:14:16.866Z,15.18
2022-11-30T12:17:11.563Z,15.85
2022-11-30T12:20:14.406Z,15.48
2022-11-30T12:23:03.183Z,14.52
2022-11-30T12:25:50.142Z,17.00
2022-11-30T12:28:52.365Z,16.05
2022-11-30T12:31:19.048Z,15.27
2022-11-30T12:33:48.889Z,16.77
2022-11-30T12:36:15.500Z,15.63
2022-11-30T12:38:56.261Z,15.68
2022-11-30T12:41:37.477Z,15.90
2022-11-30T12:44:22.588Z,14.82
2022-11-30T12:47:00.585Z,15.90
2022-11-30T12:49:51.056Z,16.38
2022-11-30T12:52:53.379Z,14.20
2022-11-30T12:55:38.271Z,16.00
2022-11-30T12:58:25.642Z,14.85
2022-11-30T13:01:12.256Z,15.45
2022-11-30T13:03:55.643Z,15.25
2022-11-30T13:06:30.106Z,19.20
2022-11-30T13:09:10.399Z,14.85
2022-11-30T13:11:40.182Z,15.50
2022-11-30T13:14:14.704Z,15.57
2022-11-30T13:16:43.344Z,17.35
2022-11-30T13:19:42.855Z,15.00
2022-11-30T13:22:17.424Z,16.63
2022-11-30T13:24:49.903Z,17.08
2022-11-30T13:27:22.996Z,16.25
2022-11-30T13:30:13.875Z,17.27
2022-11-30T13:35:29.958Z,17.55
2022-11-30T13:38:35.812Z,16.40
2022-11-30T13:41:03.299Z,15.68
2022-11-30T13:43:34.520Z,15.52
2022-11-30T13:46:15.359Z,15.13
2022-11-30T13:48:44.167Z,15.55
2022-11-30T13:51:11.645Z,15.85
2022-11-30T13:53:39.516Z,15.88
2022-11-30T13:56:21.244Z,15.48
2022-11-30T13:59:25.543Z,16.35
2022-11-30T14:02:13.079Z,15.88
2022-11-30T14:04:47.747Z,17.70
2022-11-30T14:07:37.754Z,17.70
2022-11-30T14:10:31.456Z,16.83
2022-11-30T14:13:01.205Z,16.35
2022-11-30T14:15:50.884Z,15.98
2022-11-30T14:18:20.950Z,15.93
2022-11-30T14:21:25.215Z,16.60
2022-11-30T14:24:14.113Z,16.65
2022-11-30T14:26:44.728Z,16.15
2022-11-30T14:29:27.633Z,15.80
2022-11-30T14:32:02.099Z,16.60
2022-11-30T14:34:32.215Z,18.77
2022-11-30T14:37:06.044Z,21.13
2022-11-30T14:39:37.043Z,16.70
2022-11-30T14:42:05.420Z,17.48
2022-11-30T14:44:40.959Z,20.65
2022-11-30T14:47:20.382Z,19.25
2022-11-30T14:49:51.864Z,31.08
2022-11-30T14:52:40.198Z,21.40
2022-11-30T14:55:36.022Z,17.13
2022-11-30T14:58:11.819Z,17.05
2022-11-30T15:00:41.128Z,20.27
2022-11-30T15:03:20.037Z,26.02
2022-11-30T15:05:49.806Z,21.58
2022-11-30T15:08:17.238Z,16.92
2022-11-30T15:10:44.086Z,15.90
2022-11-30T15:13:17.503Z,17.25
2022-11-30T15:15:55.694Z,16.40
2022-11-30T15:18:24.571Z,16.38
2022-11-30T15:21:11.552Z,17.65
2022-11-30T15:23:38.538Z,16.17
2022-11-30T15:26:14.221Z,14.25
2022-11-30T15:28:44.927Z,15.00
2022-11-30T15:31:15.437Z,17.42
2022-11-30T15:33:46.043Z,15.05
2022-11-30T15:36:27.790Z,16.63
2022-11-30T15:39:05.368Z,15.70
2022-11-30T15:41:33.932Z,15.10
2022-11-30T15:44:02.321Z,15.05
2022-11-30T15:46:35.125Z,15.60
2022-11-30T15:49:17.104Z,17.27
2022-11-30T15:51:52.022Z,15.30
2022-11-30T15:54:46.599Z,15.80
2022-11-30T15:57:14.332Z,16.38
2022-11-30T15:59:41.924Z,16.38
2022-11-30T16:02:32.845Z,15.68
2022-11-30T16:05:19.730Z,16.90
2022-11-30T16:08:00.497Z,18.83
2022-11-30T16:10:36.805Z,19.67
2022-11-30T16:13:04.881Z,20.95
2022-11-30T16:15:36.579Z,20.63
2022-11-30T16:18:21.954Z,19.15
2022-11-30T16:20:51.493Z,19.65
2022-11-30T16:23:19.512Z,18.17
2022-11-30T16:25:47.367Z,18.05
2022-11-30T16:28:16.169Z,16.77
2022-11-30T16:30:43.707Z,17.75
2022-11-30T16:33:15.380Z,17.65
2022-11-30T16:36:09.486Z,17.70
2022-11-30T16:38:37.505Z,16.95
2022-11-30T16:41:13.826Z,17.48
2022-11-30T16:43:42.350Z,17.50
2022-11-30T16:46:28.279Z,28.70
2022-11-30T16:48:55.652Z,18.42
2022-11-30T16:51:35.281Z,17.63
2022-11-30T16:54:03.878Z,17.52
2022-11-30T16:56:31.712Z,18.20
2022-11-30T16:58:58.877Z,17.50
2022-11-30T17:01:36.033Z,18.52
2022-11-30T17:04:19.287Z,18.52
2022-11-30T17:06:50.599Z,17.33
2022-11-30T17:09:19.451Z,17.23
2022-11-30T17:11:50.503Z,16.95
2022-11-30T17:14:18.025Z,17.90
2022-11-30T17:16:44.980Z,17.90
2022-11-30T17:19:12.939Z,17.70
2022-11-30T17:21:42.651Z,19.33
2022-11-30T17:24:09.615Z,19.52
2022-11-30T17:26:36.503Z,21.88
2022-11-30T17:29:04.189Z,18.23
2022-11-30T17:31:31.390Z,23.05
2022-11-30T17:33:58.819Z,19.08
2022-11-30T17:36:26.977Z,18.48
2022-11-30T17:38:54.526Z,18.25
2022-11-30T17:41:22.525Z,17.42
2022-11-30T17:43:49.733Z,25.90
2022-11-30T17:46:19.294Z,17.70
2022-11-30T17:48:46.610Z,18.45
2022-11-30T17:51:14.104Z,20.15
2022-11-30T17:53:42.959Z,19.38
2022-11-30T17:56:16.196Z,20.02
2022-11-30T17:58:45.342Z,21.58
2022-11-30T18:01:16.183Z,21.25
2022-11-30T18:03:44.496Z,19.33
2022-11-30T18:06:12.146Z,19.25
2022-11-30T18:08:40.105Z,18.55
2022-11-30T18:11:14.273Z,18.95
2022-11-30T18:13:41.312Z,20.27
2022-11-30T18:16:10.544Z,20.75
2022-11-30T18:18:40.525Z,20.25
2022-11-30T18:21:11.580Z,20.52
2022-11-30T18:23:39.207Z,22.60
2022-11-30T18:26:10.332Z,21.55
2022-11-30T18:28:37.534Z,20.90
2022-11-30T18:31:06.518Z,21.08
2022-11-30T18:33:34.481Z,21.50
2022-11-30T18:36:02.232Z,21.55
2022-11-30T18:38:34.218Z,22.90
2022-11-30T18:41:04.304Z,22.88
2022-11-30T18:43:31.917Z,22.58
2022-11-30T18:46:09.315Z,22.63
2022-11-30T18:48:37.715Z,21.38
2022-11-30T18:51:23.522Z,21.85
2022-11-30T18:53:57.984Z,21.80
2022-11-30T18:56:26.640Z,20.55
2022-11-30T18:59:02.677Z,20.27
2022-11-30T19:01:31.825Z,20.00
2022-11-30T19:04:10.643Z,19.90
2022-11-30T19:06:39.807Z,21.10
2022-11-30T19:09:09.417Z,19.38
2022-11-30T19:11:37.448Z,21.40
2022-11-30T19:14:04.832Z,20.95
2022-11-30T19:16:34.352Z,19.90
2022-11-30T19:19:03.413Z,20.20
2022-11-30T19:21:29.974Z,19.70
2022-11-30T19:23:57.200Z,20.50
2022-11-30T19:26:23.819Z,19.60
2022-11-30T19:28:53.532Z,20.58
2022-11-30T19:31:20.744Z,19.65
2022-11-30T19:33:49.800Z,19.90
2022-11-30T19:36:19.264Z,19.60
2022-11-30T19:38:47.988Z,18.92
2022-11-30T19:41:16.625Z,20.10
2022-11-30T19:43:49.416Z,21.60
2022-11-30T19:46:20.146Z,19.90
2022-11-30T19:48:53.097Z,21.85
2022-11-30T19:51:20.297Z,26.70
2022-11-30T19:53:47.265Z,23.75
2022-11-30T19:56:18.091Z,26.05
2022-11-30T19:58:47.360Z,31.05
2022-11-30T20:01:15.687Z,26.65
2022-11-30T20:03:46.513Z,26.27
2022-11-30T20:06:14.784Z,24.83
2022-11-30T20:08:42.953Z,22.85
2022-11-30T20:11:13.006Z,23.08
2022-11-30T20:13:43.265Z,24.50
2022-11-30T20:16:15.742Z,24.15
2022-11-30T20:18:46.222Z,22.10
2022-11-30T20:21:18.422Z,23.33
2022-11-30T20:23:47.082Z,22.30
2022-11-30T20:26:18.112Z,22.02
2022-11-30T20:28:46.413Z,21.70
2022-11-30T20:31:14.814Z,21.75
2022-11-30T20:33:41.622Z,21.67
2022-11-30T20:36:09.514Z,20.83
2022-11-30T20:38:36.998Z,20.98
2022-11-30T20:41:04.158Z,19.90
2022-11-30T20:43:30.856Z,20.00
2022-11-30T20:45:57.572Z,20.55
2022-11-30T20:48:24.181Z,20.27
2022-11-30T20:51:07.587Z,20.48
2022-11-30T20:53:38.771Z,20.13
2022-11-30T20:56:06.198Z,20.58
2022-11-30T20:58:32.960Z,21.02
2022-11-30T21:01:00.776Z,20.02
2022-11-30T21:03:27.977Z,20.33
2022-11-30T21:05:54.836Z,19.60
2022-11-30T21:08:21.597Z,19.77
2022-11-30T21:10:48.520Z,19.45
2022-11-30T21:13:15.349Z,19.35
2022-11-30T21:15:41.928Z,19.23
2022-11-30T21:18:08.552Z,19.58
2022-11-30T21:20:36.390Z,20.10
2022-11-30T21:23:05.163Z,20.27
2022-11-30T21:25:33.421Z,20.08
2022-11-30T21:28:00.341Z,19.15
2022-11-30T21:30:28.424Z,19.73
2022-11-30T21:32:55.081Z,19.98
2022-11-30T21:35:21.836Z,20.02
2022-11-30T21:37:48.371Z,19.38
2022-11-30T21:40:16.313Z,20.17
2022-11-30T21:42:43.971Z,18.95
2022-11-30T21:45:11.235Z,19.83
2022-11-30T21:47:40.652Z,19.80
2022-11-30T21:50:08.545Z,19.90
2022-11-30T21:52:36.252Z,19.80
2022-11-30T21:55:02.955Z,19.90
2022-11-30T21:57:29.686Z,20.33
2022-11-30T21:59:57.817Z,19.27
2022-11-30T22:02:25.509Z,20.60
2022-11-30T22:04:54.404Z,20.42
2022-11-30T22:07:32.030Z,20.05
2022-11-30T22:09:59.740Z,19.80
2022-11-30T22:12:26.705Z,19.17
2022-11-30T22:14:54.352Z,21.02
2022-11-30T22:17:22.246Z,21.13
2022-11-30T22:19:52.357Z,21.23
2022-11-30T22:22:20.457Z,21.02
2022-11-30T22:24:47.025Z,20.38
2022-11-30T22:27:13.516Z,20.83
2022-11-30T22:29:40.092Z,20.27
2022-11-30T22:32:06.624Z,20.63
2022-11-30T22:34:33.245Z,21.55
2022-11-30T22:36:59.969Z,20.33
2022-11-30T22:39:26.511Z,21.23
2022-11-30T22:41:56.062Z,20.52
2022-11-30T22:44:23.768Z,20.75
2022-11-30T22:46:50.390Z,21.02
2022-11-30T22:49:21.277Z,20.35
2022-11-30T22:51:49.330Z,20.35
2022-11-30T22:54:15.893Z,20.80
2022-11-30T22:56:42.485Z,21.40
2022-11-30T22:59:15.207Z,20.15
2022-11-30T23:01:45.871Z,19.90
2022-11-30T23:04:16.748Z,20.23
2022-11-30T23:06:46.733Z,21.35
2022-11-30T23:09:20.328Z,20.25
2022-11-30T23:11:50.419Z,21.45
2022-11-30T23:14:19.342Z,21.63
2022-11-30T23:16:49.183Z,21.27
2022-11-30T23:19:16.625Z,21.30
2022-11-30T23:21:47.763Z,20.80
2022-11-30T23:24:17.533Z,21.73
2022-11-30T23:26:44.567Z,21.30
2022-11-30T23:29:14.344Z,22.02
2022-11-30T23:31:45.886Z,21.30
2022-11-30T23:34:20.424Z,21.58
2022-11-30T23:36:47.568Z,22.13
2022-11-30T23:39:16.815Z,21.80
2022-11-30T23:41:45.197Z,23.20
2022-11-30T23:44:12.958Z,22.23
2022-11-30T23:46:40.405Z,23.00
2022-11-30T23:49:08.425Z,22.58
2022-11-30T23:51:35.873Z,23.30
2022-11-30T23:54:04.192Z,23.30
2022-11-30T23:56:32.544Z,22.95
2022-11-30T23:59:01.288Z,23.25
